sensor_id;sensor_type;location;lat;lon;timestamp;P1;durP1;ratioP1;P2;durP2;ratioP2
9950;SDS011;24074;49.254;6.702;2024-03-23T00:53:25;21.53;;;17.23;;
9950;SDS011;24074;49.254;6.702;2024-03-23T00:55:51;24.90;;;18.67;;
9950;SDS011;24074;49.254;6.702;2024-03-23T00:58:17;23.57;;;18.93;;
9950;SDS011;24074;49.254;6.702;2024-03-23T01:00:43;24.30;;;18.33;;
9950;SDS011;24074;49.254;6.702;2024-03-23T01:03:08;25.30;;;19.10;;
9950;SDS011;24074;49.254;6.702;2024-03-23T01:05:34;26.43;;;19.53;;
9950;SDS011;24074;49.254;6.702;2024-03-23T01:07:59;24.53;;;18.83;;
9950;SDS011;24074;49.254;6.702;2024-03-23T01:10:25;26.43;;;19.30;;
9950;SDS011;24074;49.254;6.702;2024-03-23T01:12:50;28.90;;;20.13;;
9950;SDS011;24074;49.254;6.702;2024-03-23T01:15:16;26.70;;;19.30;;
9950;SDS011;24074;49.254;6.702;2024-03-23T01:17:41;29.67;;;20.03;;
9950;SDS011;24074;49.254;6.702;2024-03-23T01:20:07;27.60;;;19.97;;
9950;SDS011;24074;49.254;6.702;2024-03-23T01:22:35;27.50;;;19.50;;
9950;SDS011;24074;49.254;6.702;2024-03-23T01:25:01;26.60;;;18.00;;
9950;SDS011;24074;49.254;6.702;2024-03-23T01:27:26;26.20;;;18.63;;
9950;SDS011;24074;49.254;6.702;2024-03-23T01:29:52;26.93;;;19.50;;
9950;SDS011;24074;49.254;6.702;2024-03-23T01:32:18;26.70;;;18.70;;
9950;SDS011;24074;49.254;6.702;2024-03-23T01:34:44;27.90;;;19.60;;
9950;SDS011;24074;49.254;6.702;2024-03-23T01:37:10;26.80;;;18.40;;
9950;SDS011;24074;49.254;6.702;2024-03-23T01:39:38;25.73;;;19.10;;
9950;SDS011;24074;49.254;6.702;2024-03-23T01:42:03;25.63;;;18.87;;
9950;SDS011;24074;49.254;6.702;2024-03-23T01:44:29;25.70;;;19.07;;
9950;SDS011;24074;49.254;6.702;2024-03-23T01:46:54;27.97;;;18.43;;
9950;SDS011;24074;49.254;6.702;2024-03-23T01:49:20;27.63;;;18.77;;
9950;SDS011;24074;49.254;6.702;2024-03-23T01:51:49;26.67;;;18.67;;
9950;SDS011;24074;49.254;6.702;2024-03-23T01:54:18;25.47;;;17.40;;
9950;SDS011;24074;49.254;6.702;2024-03-23T01:56:44;26.43;;;18.67;;
9950;SDS011;24074;49.254;6.702;2024-03-23T01:59:10;23.07;;;17.07;;
9950;SDS011;24074;49.254;6.702;2024-03-23T02:01:35;24.13;;;16.40;;
9950;SDS011;24074;49.254;6.702;2024-03-23T02:04:01;21.00;;;15.40;;
9950;SDS011;24074;49.254;6.702;2024-03-23T02:06:27;22.77;;;15.77;;
9950;SDS011;24074;49.254;6.702;2024-03-23T02:08:53;19.20;;;13.67;;
9950;SDS011;24074;49.254;6.702;2024-03-23T02:11:19;19.87;;;14.40;;
9950;SDS011;24074;49.254;6.702;2024-03-23T02:13:45;20.40;;;13.60;;
9950;SDS011;24074;49.254;6.702;2024-03-23T02:16:10;17.87;;;13.07;;
9950;SDS011;24074;49.254;6.702;2024-03-23T02:18:36;17.13;;;12.60;;
9950;SDS011;24074;49.254;6.702;2024-03-23T02:21:02;16.87;;;12.20;;
9950;SDS011;24074;49.254;6.702;2024-03-23T02:23:28;17.57;;;12.00;;
9950;SDS011;24074;49.254;6.702;2024-03-23T02:25:54;15.20;;;11.20;;
9950;SDS011;24074;49.254;6.702;2024-03-23T02:28:19;13.33;;;10.67;;
9950;SDS011;24074;49.254;6.702;2024-03-23T02:30:45;13.40;;;10.47;;
9950;SDS011;24074;49.254;6.702;2024-03-23T02:33:11;12.37;;;8.83;;
9950;SDS011;24074;49.254;6.702;2024-03-23T02:35:37;10.73;;;8.27;;
9950;SDS011;24074;49.254;6.702;2024-03-23T02:38:02;10.07;;;7.83;;
9950;SDS011;24074;49.254;6.702;2024-03-23T02:40:28;9.57;;;7.60;;
9950;SDS011;24074;49.254;6.702;2024-03-23T02:42:54;6.50;;;5.80;;
9950;SDS011;24074;49.254;6.702;2024-03-23T02:45:19;7.33;;;5.63;;
9950;SDS011;24074;49.254;6.702;2024-03-23T02:47:45;7.47;;;4.63;;
9950;SDS011;24074;49.254;6.702;2024-03-23T02:50:10;6.57;;;4.67;;
9950;SDS011;24074;49.254;6.702;2024-03-23T02:52:36;5.23;;;3.80;;
9950;SDS011;24074;49.254;6.702;2024-03-23T02:55:03;3.97;;;3.40;;
9950;SDS011;24074;49.254;6.702;2024-03-23T02:57:30;4.33;;;3.30;;
9950;SDS011;24074;49.254;6.702;2024-03-23T02:59:55;4.30;;;3.23;;
9950;SDS011;24074;49.254;6.702;2024-03-23T03:02:24;3.47;;;2.47;;
9950;SDS011;24074;49.254;6.702;2024-03-23T03:04:52;2.10;;;1.90;;
9950;SDS011;24074;49.254;6.702;2024-03-23T03:07:18;3.00;;;1.70;;
9950;SDS011;24074;49.254;6.702;2024-03-23T03:09:43;1.40;;;1.30;;
9950;SDS011;24074;49.254;6.702;2024-03-23T03:12:09;1.60;;;1.33;;
9950;SDS011;24074;49.254;6.702;2024-03-23T03:14:34;1.20;;;1.10;;
9950;SDS011;24074;49.254;6.702;2024-03-23T03:17:00;1.90;;;1.07;;
9950;SDS011;24074;49.254;6.702;2024-03-23T03:19:26;1.13;;;1.00;;
9950;SDS011;24074;49.254;6.702;2024-03-23T03:21:52;1.47;;;1.10;;
9950;SDS011;24074;49.254;6.702;2024-03-23T03:24:18;1.20;;;1.10;;
9950;SDS011;24074;49.254;6.702;2024-03-23T03:26:43;1.90;;;1.20;;
9950;SDS011;24074;49.254;6.702;2024-03-23T03:29:09;2.43;;;1.17;;
9950;SDS011;24074;49.254;6.702;2024-03-23T03:31:36;2.07;;;1.23;;
9950;SDS011;24074;49.254;6.702;2024-03-23T03:34:02;1.40;;;1.30;;
9950;SDS011;24074;49.254;6.702;2024-03-23T03:36:28;1.27;;;1.17;;
9950;SDS011;24074;49.254;6.702;2024-03-23T03:38:53;1.20;;;1.10;;
9950;SDS011;24074;49.254;6.702;2024-03-23T03:41:19;1.10;;;1.00;;
9950;SDS011;24074;49.254;6.702;2024-03-23T03:43:45;1.07;;;0.97;;
9950;SDS011;24074;49.254;6.702;2024-03-23T03:46:10;1.63;;;0.80;;
9950;SDS011;24074;49.254;6.702;2024-03-23T03:48:38;0.80;;;0.80;;
9950;SDS011;24074;49.254;6.702;2024-03-23T03:51:04;1.10;;;0.90;;
9950;SDS011;24074;49.254;6.702;2024-03-23T03:53:30;1.43;;;0.70;;
9950;SDS011;24074;49.254;6.702;2024-03-23T03:55:56;0.70;;;0.70;;
9950;SDS011;24074;49.254;6.702;2024-03-23T03:58:25;0.60;;;0.60;;
9950;SDS011;24074;49.254;6.702;2024-03-23T04:00:51;0.63;;;0.57;;
9950;SDS011;24074;49.254;6.702;2024-03-23T04:03:16;1.07;;;0.80;;
9950;SDS011;24074;49.254;6.702;2024-03-23T04:05:42;0.70;;;0.60;;
9950;SDS011;24074;49.254;6.702;2024-03-23T04:08:07;0.57;;;0.57;;
9950;SDS011;24074;49.254;6.702;2024-03-23T04:10:33;1.23;;;0.80;;
9950;SDS011;24074;49.254;6.702;2024-03-23T04:12:59;0.67;;;0.67;;
9950;SDS011;24074;49.254;6.702;2024-03-23T04:15:25;0.70;;;0.70;;
9950;SDS011;24074;49.254;6.702;2024-03-23T04:17:51;1.27;;;0.90;;
9950;SDS011;24074;49.254;6.702;2024-03-23T04:20:17;1.00;;;0.90;;
9950;SDS011;24074;49.254;6.702;2024-03-23T04:22:43;0.93;;;0.90;;
9950;SDS011;24074;49.254;6.702;2024-03-23T04:25:09;1.30;;;0.93;;
9950;SDS011;24074;49.254;6.702;2024-03-23T04:27:38;1.10;;;1.00;;
9950;SDS011;24074;49.254;6.702;2024-03-23T04:30:05;1.43;;;1.33;;
9950;SDS011;24074;49.254;6.702;2024-03-23T04:32:36;1.63;;;1.33;;
9950;SDS011;24074;49.254;6.702;2024-03-23T04:35:02;1.77;;;1.60;;
9950;SDS011;24074;49.254;6.702;2024-03-23T04:37:32;3.83;;;1.30;;
9950;SDS011;24074;49.254;6.702;2024-03-23T04:39:59;1.50;;;1.40;;
9950;SDS011;24074;49.254;6.702;2024-03-23T04:42:26;2.33;;;1.30;;
9950;SDS011;24074;49.254;6.702;2024-03-23T04:44:52;1.50;;;1.40;;
9950;SDS011;24074;49.254;6.702;2024-03-23T04:47:18;1.40;;;1.30;;
9950;SDS011;24074;49.254;6.702;2024-03-23T04:49:43;1.67;;;1.57;;
9950;SDS011;24074;49.254;6.702;2024-03-23T04:52:09;1.30;;;1.20;;
9950;SDS011;24074;49.254;6.702;2024-03-23T04:54:35;1.50;;;1.23;;
9950;SDS011;24074;49.254;6.702;2024-03-23T04:57:05;1.53;;;1.40;;
9950;SDS011;24074;49.254;6.702;2024-03-23T04:59:31;1.43;;;1.33;;
9950;SDS011;24074;49.254;6.702;2024-03-23T05:01:56;1.40;;;1.30;;
9950;SDS011;24074;49.254;6.702;2024-03-23T05:04:22;1.40;;;1.30;;
9950;SDS011;24074;49.254;6.702;2024-03-23T05:06:48;1.30;;;1.20;;
9950;SDS011;24074;49.254;6.702;2024-03-23T05:09:13;2.00;;;1.30;;
9950;SDS011;24074;49.254;6.702;2024-03-23T05:11:39;1.67;;;1.30;;
9950;SDS011;24074;49.254;6.702;2024-03-23T05:14:06;2.53;;;1.40;;
9950;SDS011;24074;49.254;6.702;2024-03-23T05:16:32;1.80;;;1.40;;
9950;SDS011;24074;49.254;6.702;2024-03-23T05:18:57;2.10;;;1.50;;
9950;SDS011;24074;49.254;6.702;2024-03-23T05:21:23;3.87;;;1.47;;
9950;SDS011;24074;49.254;6.702;2024-03-23T05:23:49;2.13;;;1.43;;
9950;SDS011;24074;49.254;6.702;2024-03-23T05:26:14;2.80;;;1.47;;
9950;SDS011;24074;49.254;6.702;2024-03-23T05:28:40;2.63;;;1.40;;
9950;SDS011;24074;49.254;6.702;2024-03-23T05:31:05;1.33;;;1.23;;
9950;SDS011;24074;49.254;6.702;2024-03-23T05:33:31;3.83;;;1.60;;
9950;SDS011;24074;49.254;6.702;2024-03-23T05:35:57;1.60;;;1.50;;
9950;SDS011;24074;49.254;6.702;2024-03-23T05:38:23;2.20;;;1.53;;
9950;SDS011;24074;49.254;6.702;2024-03-23T05:40:55;2.90;;;1.57;;
9950;SDS011;24074;49.254;6.702;2024-03-23T05:43:24;2.50;;;1.50;;
9950;SDS011;24074;49.254;6.702;2024-03-23T05:45:57;2.60;;;1.57;;
9950;SDS011;24074;49.254;6.702;2024-03-23T05:48:27;3.00;;;1.70;;
9950;SDS011;24074;49.254;6.702;2024-03-23T05:50:55;4.57;;;2.13;;
9950;SDS011;24074;49.254;6.702;2024-03-23T05:53:20;3.23;;;1.80;;
9950;SDS011;24074;49.254;6.702;2024-03-23T05:55:46;5.53;;;2.23;;
9950;SDS011;24074;49.254;6.702;2024-03-23T05:58:12;5.03;;;2.40;;
9950;SDS011;24074;49.254;6.702;2024-03-23T06:00:40;5.50;;;2.80;;
9950;SDS011;24074;49.254;6.702;2024-03-23T06:03:05;7.17;;;2.37;;
9950;SDS011;24074;49.254;6.702;2024-03-23T06:05:31;5.93;;;2.47;;
9950;SDS011;24074;49.254;6.702;2024-03-23T06:08:00;6.50;;;3.13;;
9950;SDS011;24074;49.254;6.702;2024-03-23T06:10:28;7.17;;;3.03;;
9950;SDS011;24074;49.254;6.702;2024-03-23T06:12:53;7.70;;;3.50;;
9950;SDS011;24074;49.254;6.702;2024-03-23T06:15:19;6.53;;;3.20;;
9950;SDS011;24074;49.254;6.702;2024-03-23T06:17:45;5.10;;;3.33;;
9950;SDS011;24074;49.254;6.702;2024-03-23T06:20:11;7.73;;;3.60;;
9950;SDS011;24074;49.254;6.702;2024-03-23T06:22:37;7.43;;;4.37;;
9950;SDS011;24074;49.254;6.702;2024-03-23T06:25:03;6.60;;;4.13;;
9950;SDS011;24074;49.254;6.702;2024-03-23T06:27:29;5.53;;;3.70;;
9950;SDS011;24074;49.254;6.702;2024-03-23T06:29:55;9.40;;;4.67;;
9950;SDS011;24074;49.254;6.702;2024-03-23T06:32:20;10.00;;;4.60;;
9950;SDS011;24074;49.254;6.702;2024-03-23T06:34:46;7.37;;;4.57;;
9950;SDS011;24074;49.254;6.702;2024-03-23T06:37:12;8.27;;;4.63;;
9950;SDS011;24074;49.254;6.702;2024-03-23T06:39:37;9.07;;;4.90;;
9950;SDS011;24074;49.254;6.702;2024-03-23T06:42:03;7.90;;;4.77;;
9950;SDS011;24074;49.254;6.702;2024-03-23T06:44:30;9.77;;;5.07;;
9950;SDS011;24074;49.254;6.702;2024-03-23T06:46:55;9.93;;;4.83;;
9950;SDS011;24074;49.254;6.702;2024-03-23T06:49:22;9.40;;;4.53;;
9950;SDS011;24074;49.254;6.702;2024-03-23T06:51:48;8.23;;;4.70;;
9950;SDS011;24074;49.254;6.702;2024-03-23T06:54:13;9.83;;;4.63;;
9950;SDS011;24074;49.254;6.702;2024-03-23T06:56:39;6.40;;;4.20;;
9950;SDS011;24074;49.254;6.702;2024-03-23T06:59:05;9.10;;;4.70;;
9950;SDS011;24074;49.254;6.702;2024-03-23T07:01:31;11.73;;;5.07;;
9950;SDS011;24074;49.254;6.702;2024-03-23T07:03:56;8.90;;;4.83;;
9950;SDS011;24074;49.254;6.702;2024-03-23T07:06:22;9.97;;;4.70;;
9950;SDS011;24074;49.254;6.702;2024-03-23T07:08:48;6.90;;;4.90;;
9950;SDS011;24074;49.254;6.702;2024-03-23T07:11:20;8.40;;;4.67;;
9950;SDS011;24074;49.254;6.702;2024-03-23T07:13:46;6.47;;;4.97;;
9950;SDS011;24074;49.254;6.702;2024-03-23T07:16:15;10.00;;;5.63;;
9950;SDS011;24074;49.254;6.702;2024-03-23T07:18:41;12.93;;;6.37;;
9950;SDS011;24074;49.254;6.702;2024-03-23T07:21:06;7.93;;;5.50;;
9950;SDS011;24074;49.254;6.702;2024-03-23T07:23:32;8.47;;;5.60;;
9950;SDS011;24074;49.254;6.702;2024-03-23T07:25:59;9.97;;;6.37;;
9950;SDS011;24074;49.254;6.702;2024-03-23T07:28:26;10.93;;;6.23;;
9950;SDS011;24074;49.254;6.702;2024-03-23T07:33:41;9.80;;;5.73;;
9950;SDS011;24074;49.254;6.702;2024-03-23T07:36:08;9.40;;;6.13;;
9950;SDS011;24074;49.254;6.702;2024-03-23T07:38:34;7.43;;;4.90;;
9950;SDS011;24074;49.254;6.702;2024-03-23T07:41:03;9.43;;;5.40;;
9950;SDS011;24074;49.254;6.702;2024-03-23T07:43:32;9.47;;;5.30;;
9950;SDS011;24074;49.254;6.702;2024-03-23T07:45:58;7.53;;;5.10;;
9950;SDS011;24074;49.254;6.702;2024-03-23T07:48:24;7.00;;;4.30;;
9950;SDS011;24074;49.254;6.702;2024-03-23T07:53:35;6.27;;;3.70;;
9950;SDS011;24074;49.254;6.702;2024-03-23T07:58:30;6.50;;;3.30;;
9950;SDS011;24074;49.254;6.702;2024-03-23T08:00:56;4.63;;;3.47;;
9950;SDS011;24074;49.254;6.702;2024-03-23T08:03:28;6.00;;;3.70;;
9950;SDS011;24074;49.254;6.702;2024-03-23T08:05:53;6.53;;;3.80;;
9950;SDS011;24074;49.254;6.702;2024-03-23T08:08:19;5.27;;;3.77;;
9950;SDS011;24074;49.254;6.702;2024-03-23T08:10:51;7.03;;;4.03;;
9950;SDS011;24074;49.254;6.702;2024-03-23T08:13:22;5.83;;;3.30;;
9950;SDS011;24074;49.254;6.702;2024-03-23T08:15:47;5.67;;;3.10;;
9950;SDS011;24074;49.254;6.702;2024-03-23T08:18:13;3.53;;;2.60;;
9950;SDS011;24074;49.254;6.702;2024-03-23T08:20:40;6.10;;;2.70;;
9950;SDS011;24074;49.254;6.702;2024-03-23T08:23:06;3.67;;;2.60;;
9950;SDS011;24074;49.254;6.702;2024-03-23T08:25:32;4.30;;;2.40;;
9950;SDS011;24074;49.254;6.702;2024-03-23T08:27:59;2.57;;;2.10;;
9950;SDS011;24074;49.254;6.702;2024-03-23T08:30:24;3.53;;;2.10;;
9950;SDS011;24074;49.254;6.702;2024-03-23T08:32:50;3.67;;;2.00;;
9950;SDS011;24074;49.254;6.702;2024-03-23T08:35:16;3.13;;;1.90;;
9950;SDS011;24074;49.254;6.702;2024-03-23T08:37:42;3.23;;;2.00;;
9950;SDS011;24074;49.254;6.702;2024-03-23T08:40:08;3.33;;;2.03;;
9950;SDS011;24074;49.254;6.702;2024-03-23T08:42:34;3.67;;;2.00;;
9950;SDS011;24074;49.254;6.702;2024-03-23T08:45:02;3.67;;;2.33;;
9950;SDS011;24074;49.254;6.702;2024-03-23T08:47:28;5.93;;;2.20;;
9950;SDS011;24074;49.254;6.702;2024-03-23T08:49:54;3.13;;;2.17;;
9950;SDS011;24074;49.254;6.702;2024-03-23T08:52:20;3.65;;;2.20;;
9950;SDS011;24074;49.254;6.702;2024-03-23T08:54:48;4.30;;;2.33;;
9950;SDS011;24074;49.254;6.702;2024-03-23T08:57:16;3.65;;;2.35;;
9950;SDS011;24074;49.254;6.702;2024-03-23T08:59:42;5.30;;;2.30;;
9950;SDS011;24074;49.254;6.702;2024-03-23T09:02:07;3.83;;;2.33;;
9950;SDS011;24074;49.254;6.702;2024-03-23T09:04:33;3.03;;;2.23;;
9950;SDS011;24074;49.254;6.702;2024-03-23T09:07:01;5.07;;;2.50;;
9950;SDS011;24074;49.254;6.702;2024-03-23T09:09:27;4.15;;;2.50;;
9950;SDS011;24074;49.254;6.702;2024-03-23T09:11:52;6.00;;;2.90;;
9950;SDS011;24074;49.254;6.702;2024-03-23T09:14:18;5.47;;;2.37;;
9950;SDS011;24074;49.254;6.702;2024-03-23T09:16:44;7.43;;;3.23;;
9950;SDS011;24074;49.254;6.702;2024-03-23T09:19:09;6.13;;;3.20;;
9950;SDS011;24074;49.254;6.702;2024-03-23T09:21:35;6.57;;;3.60;;
9950;SDS011;24074;49.254;6.702;2024-03-23T09:24:00;8.03;;;3.73;;
9950;SDS011;24074;49.254;6.702;2024-03-23T09:26:26;5.23;;;2.90;;
9950;SDS011;24074;49.254;6.702;2024-03-23T09:28:54;7.83;;;3.43;;
9950;SDS011;24074;49.254;6.702;2024-03-23T09:31:20;6.23;;;2.90;;
9950;SDS011;24074;49.254;6.702;2024-03-23T09:33:47;8.57;;;3.50;;
9950;SDS011;24074;49.254;6.702;2024-03-23T09:36:12;12.47;;;3.30;;
9950;SDS011;24074;49.254;6.702;2024-03-23T09:38:38;7.57;;;3.07;;
9950;SDS011;24074;49.254;6.702;2024-03-23T09:41:06;7.57;;;3.60;;
9950;SDS011;24074;49.254;6.702;2024-03-23T09:43:35;10.60;;;3.23;;
9950;SDS011;24074;49.254;6.702;2024-03-23T09:46:03;7.80;;;3.20;;
9950;SDS011;24074;49.254;6.702;2024-03-23T09:48:32;8.63;;;3.40;;
9950;SDS011;24074;49.254;6.702;2024-03-23T09:50:58;41.57;;;7.50;;
9950;SDS011;24074;49.254;6.702;2024-03-23T09:53:24;7.67;;;3.00;;
9950;SDS011;24074;49.254;6.702;2024-03-23T09:55:49;9.10;;;3.20;;
9950;SDS011;24074;49.254;6.702;2024-03-23T09:58:18;9.17;;;2.83;;
9950;SDS011;24074;49.254;6.702;2024-03-23T10:00:44;5.40;;;2.30;;
9950;SDS011;24074;49.254;6.702;2024-03-23T10:03:10;4.53;;;2.27;;
9950;SDS011;24074;49.254;6.702;2024-03-23T10:05:36;3.87;;;2.47;;
9950;SDS011;24074;49.254;6.702;2024-03-23T10:08:17;4.00;;;2.23;;
9950;SDS011;24074;49.254;6.702;2024-03-23T10:10:44;5.33;;;2.30;;
9950;SDS011;24074;49.254;6.702;2024-03-23T10:13:11;6.37;;;2.33;;
9950;SDS011;24074;49.254;6.702;2024-03-23T10:15:48;12.00;;;3.20;;
9950;SDS011;24074;49.254;6.702;2024-03-23T10:18:20;6.10;;;3.00;;
9950;SDS011;24074;49.254;6.702;2024-03-23T10:21:06;5.17;;;2.83;;
9950;SDS011;24074;49.254;6.702;2024-03-23T10:23:32;6.77;;;2.97;;
9950;SDS011;24074;49.254;6.702;2024-03-23T10:26:43;7.40;;;3.40;;
9950;SDS011;24074;49.254;6.702;2024-03-23T10:28:55;7.57;;;2.87;;
9950;SDS011;24074;49.254;6.702;2024-03-23T10:31:24;9.10;;;3.27;;
9950;SDS011;24074;49.254;6.702;2024-03-23T10:33:50;9.43;;;3.20;;
9950;SDS011;24074;49.254;6.702;2024-03-23T10:36:18;9.03;;;3.40;;
9950;SDS011;24074;49.254;6.702;2024-03-23T10:38:45;7.60;;;3.10;;
9950;SDS011;24074;49.254;6.702;2024-03-23T10:41:12;9.27;;;3.13;;
9950;SDS011;24074;49.254;6.702;2024-03-23T10:43:41;5.07;;;2.10;;
9950;SDS011;24074;49.254;6.702;2024-03-23T10:46:09;9.90;;;3.20;;
9950;SDS011;24074;49.254;6.702;2024-03-23T10:48:35;9.00;;;3.00;;
9950;SDS011;24074;49.254;6.702;2024-03-23T10:51:00;11.10;;;3.07;;
9950;SDS011;24074;49.254;6.702;2024-03-23T10:53:27;9.70;;;3.30;;
9950;SDS011;24074;49.254;6.702;2024-03-23T10:55:53;6.70;;;3.00;;
9950;SDS011;24074;49.254;6.702;2024-03-23T10:58:38;4.30;;;1.60;;
9950;SDS011;24074;49.254;6.702;2024-03-23T11:01:11;7.03;;;3.70;;
9950;SDS011;24074;49.254;6.702;2024-03-23T11:03:47;7.37;;;3.67;;
9950;SDS011;24074;49.254;6.702;2024-03-23T11:06:34;2.67;;;1.60;;
9950;SDS011;24074;49.254;6.702;2024-03-23T11:09:02;2.87;;;1.40;;
9950;SDS011;24074;49.254;6.702;2024-03-23T11:11:27;2.63;;;1.43;;
9950;SDS011;24074;49.254;6.702;2024-03-23T11:13:56;5.00;;;2.27;;
9950;SDS011;24074;49.254;6.702;2024-03-23T11:16:22;3.77;;;1.40;;
9950;SDS011;24074;49.254;6.702;2024-03-23T11:18:48;2.67;;;1.10;;
9950;SDS011;24074;49.254;6.702;2024-03-23T11:24:21;9.10;;;6.87;;
9950;SDS011;24074;49.254;6.702;2024-03-23T11:26:47;4.90;;;3.40;;
9950;SDS011;24074;49.254;6.702;2024-03-23T11:29:14;5.10;;;3.00;;
9950;SDS011;24074;49.254;6.702;2024-03-23T11:31:48;50.67;;;13.90;;
9950;SDS011;24074;49.254;6.702;2024-03-23T11:34:17;10.63;;;8.87;;
9950;SDS011;24074;49.254;6.702;2024-03-23T11:36:44;12.90;;;11.60;;
9950;SDS011;24074;49.254;6.702;2024-03-23T11:41:53;5.60;;;2.60;;
9950;SDS011;24074;49.254;6.702;2024-03-23T11:44:22;25.83;;;23.20;;
9950;SDS011;24074;49.254;6.702;2024-03-23T11:46:50;15.30;;;13.67;;
9950;SDS011;24074;49.254;6.702;2024-03-23T11:49:23;14.47;;;12.03;;
9950;SDS011;24074;49.254;6.702;2024-03-23T11:51:50;20.67;;;18.77;;
9950;SDS011;24074;49.254;6.702;2024-03-23T11:54:20;12.10;;;10.00;;
9950;SDS011;24074;49.254;6.702;2024-03-23T11:59:36;17.23;;;15.67;;
9950;SDS011;24074;49.254;6.702;2024-03-23T12:02:10;5.13;;;3.10;;
9950;SDS011;24074;49.254;6.702;2024-03-23T12:04:37;5.53;;;3.50;;
9950;SDS011;24074;49.254;6.702;2024-03-23T12:07:36;6.87;;;3.33;;
9950;SDS011;24074;49.254;6.702;2024-03-23T12:10:04;16.63;;;14.10;;
9950;SDS011;24074;49.254;6.702;2024-03-23T12:12:33;15.40;;;13.70;;
9950;SDS011;24074;49.254;6.702;2024-03-23T12:15:03;6.07;;;3.17;;
9950;SDS011;24074;49.254;6.702;2024-03-23T12:17:30;6.57;;;5.93;;
9950;SDS011;24074;49.254;6.702;2024-03-23T12:19:57;11.10;;;8.60;;
9950;SDS011;24074;49.254;6.702;2024-03-23T12:22:25;6.47;;;4.10;;
9950;SDS011;24074;49.254;6.702;2024-03-23T12:24:52;14.47;;;12.23;;
9950;SDS011;24074;49.254;6.702;2024-03-23T12:27:18;6.33;;;3.53;;
9950;SDS011;24074;49.254;6.702;2024-03-23T12:29:43;6.67;;;4.30;;
9950;SDS011;24074;49.254;6.702;2024-03-23T12:32:13;5.40;;;4.27;;
9950;SDS011;24074;49.254;6.702;2024-03-23T12:34:39;3.53;;;1.83;;
9950;SDS011;24074;49.254;6.702;2024-03-23T12:37:08;7.20;;;4.77;;
9950;SDS011;24074;49.254;6.702;2024-03-23T12:39:34;5.37;;;3.77;;
9950;SDS011;24074;49.254;6.702;2024-03-23T12:42:00;6.47;;;5.10;;
9950;SDS011;24074;49.254;6.702;2024-03-23T12:44:29;9.93;;;8.07;;
9950;SDS011;24074;49.254;6.702;2024-03-23T12:46:54;12.07;;;10.90;;
9950;SDS011;24074;49.254;6.702;2024-03-23T12:49:23;3.13;;;2.63;;
9950;SDS011;24074;49.254;6.702;2024-03-23T12:51:55;2.97;;;1.50;;
9950;SDS011;24074;49.254;6.702;2024-03-23T12:54:22;1.70;;;0.80;;
9950;SDS011;24074;49.254;6.702;2024-03-23T12:56:48;4.20;;;3.67;;
9950;SDS011;24074;49.254;6.702;2024-03-23T12:59:14;3.63;;;2.30;;
9950;SDS011;24074;49.254;6.702;2024-03-23T13:01:39;3.17;;;2.27;;
9950;SDS011;24074;49.254;6.702;2024-03-23T13:04:05;1.90;;;1.80;;
9950;SDS011;24074;49.254;6.702;2024-03-23T13:06:31;4.07;;;2.60;;
9950;SDS011;24074;49.254;6.702;2024-03-23T13:09:03;2.13;;;1.80;;
9950;SDS011;24074;49.254;6.702;2024-03-23T13:11:30;2.70;;;2.20;;
9950;SDS011;24074;49.254;6.702;2024-03-23T13:13:55;5.13;;;3.63;;
9950;SDS011;24074;49.254;6.702;2024-03-23T13:16:21;3.93;;;2.93;;
9950;SDS011;24074;49.254;6.702;2024-03-23T13:18:50;3.23;;;2.07;;
9950;SDS011;24074;49.254;6.702;2024-03-23T13:21:16;4.33;;;2.83;;
9950;SDS011;24074;49.254;6.702;2024-03-23T13:23:42;7.43;;;3.40;;
9950;SDS011;24074;49.254;6.702;2024-03-23T13:26:10;12.40;;;11.20;;
9950;SDS011;24074;49.254;6.702;2024-03-23T13:28:39;8.67;;;7.87;;
9950;SDS011;24074;49.254;6.702;2024-03-23T13:31:04;4.33;;;2.30;;
9950;SDS011;24074;49.254;6.702;2024-03-23T13:33:30;3.70;;;3.00;;
9950;SDS011;24074;49.254;6.702;2024-03-23T13:35:59;7.07;;;3.80;;
9950;SDS011;24074;49.254;6.702;2024-03-23T13:38:25;2.37;;;1.50;;
9950;SDS011;24074;49.254;6.702;2024-03-23T13:40:58;5.13;;;2.07;;
9950;SDS011;24074;49.254;6.702;2024-03-23T13:43:25;8.37;;;3.33;;
9950;SDS011;24074;49.254;6.702;2024-03-23T13:45:56;5.93;;;3.37;;
9950;SDS011;24074;49.254;6.702;2024-03-23T13:48:23;8.30;;;2.93;;
9950;SDS011;24074;49.254;6.702;2024-03-23T13:53:28;3.00;;;1.47;;
9950;SDS011;24074;49.254;6.702;2024-03-23T13:55:56;3.83;;;1.30;;
9950;SDS011;24074;49.254;6.702;2024-03-23T13:58:22;2.57;;;1.10;;
9950;SDS011;24074;49.254;6.702;2024-03-23T14:00:50;2.07;;;1.20;;
9950;SDS011;24074;49.254;6.702;2024-03-23T14:03:16;2.77;;;1.30;;
9950;SDS011;24074;49.254;6.702;2024-03-23T14:05:43;1.83;;;1.00;;
9950;SDS011;24074;49.254;6.702;2024-03-23T14:08:09;3.37;;;2.03;;
9950;SDS011;24074;49.254;6.702;2024-03-23T14:10:36;2.23;;;1.37;;
9950;SDS011;24074;49.254;6.702;2024-03-23T14:13:05;3.00;;;1.80;;
9950;SDS011;24074;49.254;6.702;2024-03-23T14:15:31;9.73;;;8.80;;
9950;SDS011;24074;49.254;6.702;2024-03-23T14:17:57;4.83;;;3.47;;
9950;SDS011;24074;49.254;6.702;2024-03-23T14:20:23;3.90;;;3.13;;
9950;SDS011;24074;49.254;6.702;2024-03-23T14:22:49;2.57;;;1.50;;
9950;SDS011;24074;49.254;6.702;2024-03-23T14:25:15;3.67;;;1.40;;
9950;SDS011;24074;49.254;6.702;2024-03-23T14:27:42;2.80;;;1.10;;
9950;SDS011;24074;49.254;6.702;2024-03-23T14:30:09;4.23;;;1.83;;
9950;SDS011;24074;49.254;6.702;2024-03-23T14:32:35;2.33;;;1.40;;
9950;SDS011;24074;49.254;6.702;2024-03-23T14:35:02;2.43;;;1.33;;
9950;SDS011;24074;49.254;6.702;2024-03-23T14:37:28;2.40;;;1.20;;
9950;SDS011;24074;49.254;6.702;2024-03-23T14:39:57;2.63;;;1.17;;
9950;SDS011;24074;49.254;6.702;2024-03-23T14:42:23;1.50;;;1.00;;
9950;SDS011;24074;49.254;6.702;2024-03-23T14:44:51;3.43;;;1.77;;
9950;SDS011;24074;49.254;6.702;2024-03-23T14:47:18;2.73;;;1.13;;
9950;SDS011;24074;49.254;6.702;2024-03-23T14:49:44;2.73;;;1.57;;
9950;SDS011;24074;49.254;6.702;2024-03-23T14:52:15;2.10;;;1.40;;
9950;SDS011;24074;49.254;6.702;2024-03-23T14:54:47;2.43;;;1.13;;
9950;SDS011;24074;49.254;6.702;2024-03-23T14:57:13;2.90;;;1.10;;
9950;SDS011;24074;49.254;6.702;2024-03-23T14:59:38;5.20;;;1.57;;
9950;SDS011;24074;49.254;6.702;2024-03-23T15:02:05;4.33;;;1.70;;
9950;SDS011;24074;49.254;6.702;2024-03-23T15:04:34;1.20;;;0.70;;
9950;SDS011;24074;49.254;6.702;2024-03-23T15:07:00;1.53;;;0.80;;
9950;SDS011;24074;49.254;6.702;2024-03-23T15:09:26;3.07;;;1.53;;
9950;SDS011;24074;49.254;6.702;2024-03-23T15:11:51;2.23;;;1.00;;
9950;SDS011;24074;49.254;6.702;2024-03-23T15:14:19;2.63;;;1.33;;
9950;SDS011;24074;49.254;6.702;2024-03-23T15:16:45;4.20;;;1.60;;
9950;SDS011;24074;49.254;6.702;2024-03-23T15:19:13;2.33;;;1.20;;
9950;SDS011;24074;49.254;6.702;2024-03-23T15:21:39;2.30;;;1.03;;
9950;SDS011;24074;49.254;6.702;2024-03-23T15:24:05;4.20;;;1.07;;
9950;SDS011;24074;49.254;6.702;2024-03-23T15:26:31;2.27;;;1.00;;
9950;SDS011;24074;49.254;6.702;2024-03-23T15:29:00;2.60;;;0.90;;
9950;SDS011;24074;49.254;6.702;2024-03-23T15:31:26;1.57;;;0.90;;
9950;SDS011;24074;49.254;6.702;2024-03-23T15:33:51;1.30;;;1.00;;
9950;SDS011;24074;49.254;6.702;2024-03-23T15:36:17;4.17;;;1.33;;
9950;SDS011;24074;49.254;6.702;2024-03-23T15:38:43;2.00;;;0.90;;
9950;SDS011;24074;49.254;6.702;2024-03-23T15:41:09;3.30;;;1.70;;
9950;SDS011;24074;49.254;6.702;2024-03-23T15:43:35;1.47;;;0.90;;
9950;SDS011;24074;49.254;6.702;2024-03-23T15:46:01;3.57;;;1.20;;
9950;SDS011;24074;49.254;6.702;2024-03-23T15:48:28;2.63;;;1.13;;
9950;SDS011;24074;49.254;6.702;2024-03-23T15:50:55;2.70;;;1.00;;
9950;SDS011;24074;49.254;6.702;2024-03-23T15:53:22;5.73;;;1.30;;
9950;SDS011;24074;49.254;6.702;2024-03-23T15:56:06;2.77;;;1.07;;
9950;SDS011;24074;49.254;6.702;2024-03-23T15:58:32;2.20;;;1.00;;
9950;SDS011;24074;49.254;6.702;2024-03-23T16:01:03;2.77;;;1.30;;
9950;SDS011;24074;49.254;6.702;2024-03-23T16:03:30;3.00;;;1.40;;
9950;SDS011;24074;49.254;6.702;2024-03-23T16:05:58;2.10;;;0.93;;
9950;SDS011;24074;49.254;6.702;2024-03-23T16:08:42;2.23;;;1.03;;